sensor_id;sensor_type;location;lat;lon;timestamp;pressure;altitude;pressure_sealevel;temperature;humidity
64889;BME280;51386;53.082;8.816;2024-03-07T00:01:41;102720.53;;;7.98;57.43
64889;BME280;51386;53.082;8.816;2024-03-07T00:04:10;102730.06;;;7.99;57.34
64889;BME280;51386;53.082;8.816;2024-03-07T00:06:38;102728.88;;;8.03;57.28
64889;BME280;51386;53.082;8.816;2024-03-07T00:09:08;102732.34;;;8.04;57.29
64889;BME280;51386;53.082;8.816;2024-03-07T00:11:37;102733.91;;;8.06;57.10
64889;BME280;51386;53.082;8.816;2024-03-07T00:14:06;102738.03;;;8.10;57.30
64889;BME280;51386;53.082;8.816;2024-03-07T00:16:35;102735.16;;;8.13;57.13
64889;BME280;51386;53.082;8.816;2024-03-07T00:19:03;102734.94;;;8.16;56.93
64889;BME280;51386;53.082;8.816;2024-03-07T00:21:31;102736.41;;;8.20;56.84
64889;BME280;51386;53.082;8.816;2024-03-07T00:24:00;102736.41;;;8.20;56.61
64889;BME280;51386;53.082;8.816;2024-03-07T00:26:28;102736.41;;;8.20;56.70
64889;BME280;51386;53.082;8.816;2024-03-07T00:28:58;102736.41;;;8.20;56.60
64889;BME280;51386;53.082;8.816;2024-03-07T00:31:27;102738.19;;;8.20;56.37
64889;BME280;51386;53.082;8.816;2024-03-07T00:33:57;102744.72;;;8.14;56.07
64889;BME280;51386;53.082;8.816;2024-03-07T00:36:40;102742.75;;;8.05;55.95
64889;BME280;51386;53.082;8.816;2024-03-07T00:39:08;102739.22;;;7.94;56.02
64889;BME280;51386;53.082;8.816;2024-03-07T00:41:40;102743.75;;;7.79;55.84
64889;BME280;51386;53.082;8.816;2024-03-07T00:44:09;102747.22;;;7.67;56.01
64889;BME280;51386;53.082;8.816;2024-03-07T00:46:38;102737.56;;;7.55;56.09
64889;BME280;51386;53.082;8.816;2024-03-07T00:49:06;102740.09;;;7.44;56.18
64889;BME280;51386;53.082;8.816;2024-03-07T00:51:35;102736.63;;;7.31;56.18
64889;BME280;51386;53.082;8.816;2024-03-07T00:54:06;102737.44;;;7.19;56.42
64889;BME280;51386;53.082;8.816;2024-03-07T00:56:35;102733.69;;;7.10;56.80
64889;BME280;51386;53.082;8.816;2024-03-07T00:59:04;102727.25;;;7.02;56.75
64889;BME280;51386;53.082;8.816;2024-03-07T01:01:33;102728.84;;;6.92;56.76
64889;BME280;51386;53.082;8.816;2024-03-07T01:04:04;102726.81;;;6.82;57.11
64889;BME280;51386;53.082;8.816;2024-03-07T01:06:32;102721.25;;;6.74;56.94
64889;BME280;51386;53.082;8.816;2024-03-07T01:09:02;102731.38;;;6.66;57.48
64889;BME280;51386;53.082;8.816;2024-03-07T01:11:31;102719.63;;;6.59;57.49
64889;BME280;51386;53.082;8.816;2024-03-07T01:13:59;102725.34;;;6.52;57.53
64889;BME280;51386;53.082;8.816;2024-03-07T01:16:27;102720.63;;;6.44;57.69
64889;BME280;51386;53.082;8.816;2024-03-07T01:18:56;102727.09;;;6.39;57.63
64889;BME280;51386;53.082;8.816;2024-03-07T01:21:24;102721.44;;;6.32;57.91
64889;BME280;51386;53.082;8.816;2024-03-07T01:23:53;102719.00;;;6.29;58.30
64889;BME280;51386;53.082;8.816;2024-03-07T01:26:22;102720.66;;;6.30;58.55
64889;BME280;51386;53.082;8.816;2024-03-07T01:28:51;102718.03;;;6.30;59.14
64889;BME280;51386;53.082;8.816;2024-03-07T01:31:21;102717.22;;;6.30;58.68
64889;BME280;51386;53.082;8.816;2024-03-07T01:33:50;102715.66;;;6.27;58.98
64889;BME280;51386;53.082;8.816;2024-03-07T01:36:19;102718.56;;;6.23;58.80
64889;BME280;51386;53.082;8.816;2024-03-07T01:38:48;102711.75;;;6.20;59.02
64889;BME280;51386;53.082;8.816;2024-03-07T01:41:17;102712.78;;;6.18;59.24
64889;BME280;51386;53.082;8.816;2024-03-07T01:43:45;102704.19;;;6.16;59.17
64889;BME280;51386;53.082;8.816;2024-03-07T01:46:14;102708.78;;;6.12;59.02
64889;BME280;51386;53.082;8.816;2024-03-07T01:48:43;102717.75;;;6.08;59.33
64889;BME280;51386;53.082;8.816;2024-03-07T01:51:12;102715.88;;;6.10;60.58
64889;BME280;51386;53.082;8.816;2024-03-07T01:53:40;102706.81;;;6.16;60.44
64889;BME280;51386;53.082;8.816;2024-03-07T01:56:09;102715.28;;;6.19;60.45
64889;BME280;51386;53.082;8.816;2024-03-07T01:58:37;102707.06;;;6.25;60.67
64889;BME280;51386;53.082;8.816;2024-03-07T02:01:06;102717.41;;;6.27;60.67
64889;BME280;51386;53.082;8.816;2024-03-07T02:03:36;102712.81;;;6.30;60.70
64889;BME280;51386;53.082;8.816;2024-03-07T02:06:04;102705.63;;;6.34;60.79
64889;BME280;51386;53.082;8.816;2024-03-07T02:08:32;102703.00;;;6.34;60.44
64889;BME280;51386;53.082;8.816;2024-03-07T02:11:02;102709.38;;;6.30;59.98
64889;BME280;51386;53.082;8.816;2024-03-07T02:13:31;102706.00;;;6.28;60.22
64889;BME280;51386;53.082;8.816;2024-03-07T02:16:03;102698.63;;;6.34;60.60
64889;BME280;51386;53.082;8.816;2024-03-07T02:18:33;102703.44;;;6.40;60.72
64889;BME280;51386;53.082;8.816;2024-03-07T02:21:07;102702.22;;;6.46;60.07
64889;BME280;51386;53.082;8.816;2024-03-07T02:23:37;102704.34;;;6.53;60.47
64889;BME280;51386;53.082;8.816;2024-03-07T02:26:06;102708.00;;;6.63;60.55
64889;BME280;51386;53.082;8.816;2024-03-07T02:28:35;102710.13;;;6.71;60.51
64889;BME280;51386;53.082;8.816;2024-03-07T02:31:03;102705.25;;;6.79;60.32
64889;BME280;51386;53.082;8.816;2024-03-07T02:33:31;102706.09;;;6.79;60.10
64889;BME280;51386;53.082;8.816;2024-03-07T02:36:00;102699.38;;;6.75;60.21
64889;BME280;51386;53.082;8.816;2024-03-07T02:38:28;102692.56;;;6.73;60.67
64889;BME280;51386;53.082;8.816;2024-03-07T02:40:57;102701.97;;;6.75;60.60
64889;BME280;51386;53.082;8.816;2024-03-07T02:43:26;102712.06;;;6.81;60.92
64889;BME280;51386;53.082;8.816;2024-03-07T02:45:55;102709.63;;;6.78;60.89
64889;BME280;51386;53.082;8.816;2024-03-07T02:48:24;102708.06;;;6.76;61.27
64889;BME280;51386;53.082;8.816;2024-03-07T02:50:53;102709.22;;;6.72;61.32
64889;BME280;51386;53.082;8.816;2024-03-07T02:53:21;102707.44;;;6.72;61.65
64889;BME280;51386;53.082;8.816;2024-03-07T02:55:50;102709.09;;;6.73;61.84
64889;BME280;51386;53.082;8.816;2024-03-07T02:58:18;102711.72;;;6.73;62.08
64889;BME280;51386;53.082;8.816;2024-03-07T03:00:47;102697.72;;;6.74;62.11
64889;BME280;51386;53.082;8.816;2024-03-07T03:03:17;102695.63;;;6.79;62.39
64889;BME280;51386;53.082;8.816;2024-03-07T03:05:45;102696.16;;;6.85;62.28
64889;BME280;51386;53.082;8.816;2024-03-07T03:08:13;102700.44;;;6.86;62.27
64889;BME280;51386;53.082;8.816;2024-03-07T03:10:42;102700.25;;;6.89;62.22
64889;BME280;51386;53.082;8.816;2024-03-07T03:13:10;102694.06;;;6.90;62.34
64889;BME280;51386;53.082;8.816;2024-03-07T03:15:39;102691.03;;;6.96;62.96
64889;BME280;51386;53.082;8.816;2024-03-07T03:18:07;102688.53;;;7.07;62.85
64889;BME280;51386;53.082;8.816;2024-03-07T03:20:36;102696.91;;;7.12;62.50
64889;BME280;51386;53.082;8.816;2024-03-07T03:23:07;102686.25;;;7.15;62.33
64889;BME280;51386;53.082;8.816;2024-03-07T03:25:47;102674.81;;;7.16;62.19
64889;BME280;51386;53.082;8.816;2024-03-07T03:28:16;102676.38;;;7.18;62.59
64889;BME280;51386;53.082;8.816;2024-03-07T03:30:49;102674.72;;;7.17;62.13
64889;BME280;51386;53.082;8.816;2024-03-07T03:33:19;102671.16;;;7.18;62.80
64889;BME280;51386;53.082;8.816;2024-03-07T03:35:49;102676.81;;;7.25;62.80
64889;BME280;51386;53.082;8.816;2024-03-07T03:38:17;102681.81;;;7.28;62.48
64889;BME280;51386;53.082;8.816;2024-03-07T03:40:47;102676.59;;;7.28;62.61
64889;BME280;51386;53.082;8.816;2024-03-07T03:43:16;102685.28;;;7.28;62.56
64889;BME280;51386;53.082;8.816;2024-03-07T03:45:45;102679.94;;;7.30;62.78
64889;BME280;51386;53.082;8.816;2024-03-07T03:48:15;102683.72;;;7.26;62.64
64889;BME280;51386;53.082;8.816;2024-03-07T03:50:44;102668.44;;;7.20;62.54
64889;BME280;51386;53.082;8.816;2024-03-07T03:53:14;102670.22;;;7.19;63.06
64889;BME280;51386;53.082;8.816;2024-03-07T03:55:43;102673.69;;;7.20;63.06
64889;BME280;51386;53.082;8.816;2024-03-07T03:58:11;102678.69;;;7.23;63.66
64889;BME280;51386;53.082;8.816;2024-03-07T04:00:39;102673.88;;;7.29;63.65
64889;BME280;51386;53.082;8.816;2024-03-07T04:03:08;102672.59;;;7.35;63.23
64889;BME280;51386;53.082;8.816;2024-03-07T04:05:36;102677.66;;;7.38;63.27
64889;BME280;51386;53.082;8.816;2024-03-07T04:08:05;102672.94;;;7.43;63.17
64889;BME280;51386;53.082;8.816;2024-03-07T04:10:33;102676.59;;;7.40;63.02
64889;BME280;51386;53.082;8.816;2024-03-07T04:13:01;102675.13;;;7.36;63.03
64889;BME280;51386;53.082;8.816;2024-03-07T04:15:31;102672.72;;;7.33;63.26
64889;BME280;51386;53.082;8.816;2024-03-07T04:18:03;102672.00;;;7.31;63.38
64889;BME280;51386;53.082;8.816;2024-03-07T04:20:32;102675.66;;;7.29;63.52
64889;BME280;51386;53.082;8.816;2024-03-07T04:23:01;102671.66;;;7.23;63.77
64889;BME280;51386;53.082;8.816;2024-03-07T04:25:30;102677.44;;;7.16;63.65
64889;BME280;51386;53.082;8.816;2024-03-07T04:27:59;102678.69;;;7.10;64.16
64889;BME280;51386;53.082;8.816;2024-03-07T04:30:27;102687.06;;;7.03;64.43
64889;BME280;51386;53.082;8.816;2024-03-07T04:32:56;102681.19;;;6.99;64.58
64889;BME280;51386;53.082;8.816;2024-03-07T04:35:26;102683.72;;;7.01;64.97
64889;BME280;51386;53.082;8.816;2024-03-07T04:37:54;102673.13;;;7.02;64.75
64889;BME280;51386;53.082;8.816;2024-03-07T04:40:23;102681.84;;;7.03;64.91
64889;BME280;51386;53.082;8.816;2024-03-07T04:42:51;102674.91;;;7.02;65.11
64889;BME280;51386;53.082;8.816;2024-03-07T04:45:20;102680.78;;;7.05;65.25
64889;BME280;51386;53.082;8.816;2024-03-07T04:47:49;102684.75;;;7.11;65.63
64889;BME280;51386;53.082;8.816;2024-03-07T04:50:18;102681.63;;;7.18;65.43
64889;BME280;51386;53.082;8.816;2024-03-07T04:52:47;102693.34;;;7.25;64.86
64889;BME280;51386;53.082;8.816;2024-03-07T04:55:16;102688.03;;;7.27;65.12
64889;BME280;51386;53.082;8.816;2024-03-07T04:57:45;102693.25;;;7.27;64.81
64889;BME280;51386;53.082;8.816;2024-03-07T05:00:15;102687.91;;;7.28;65.25
64889;BME280;51386;53.082;8.816;2024-03-07T05:02:47;102690.41;;;7.30;65.29
64889;BME280;51386;53.082;8.816;2024-03-07T05:05:16;102691.16;;;7.32;65.07
64889;BME280;51386;53.082;8.816;2024-03-07T05:07:54;102680.06;;;7.28;64.72
64889;BME280;51386;53.082;8.816;2024-03-07T05:10:23;102685.50;;;7.25;65.10
64889;BME280;51386;53.082;8.816;2024-03-07T05:12:52;102684.56;;;7.26;65.49
64889;BME280;51386;53.082;8.816;2024-03-07T05:15:21;102697.13;;;7.34;65.44
64889;BME280;51386;53.082;8.816;2024-03-07T05:17:53;102693.34;;;7.38;65.14
64889;BME280;51386;53.082;8.816;2024-03-07T05:20:24;102692.44;;;7.39;64.99
64889;BME280;51386;53.082;8.816;2024-03-07T05:22:52;102691.66;;;7.37;64.95
64889;BME280;51386;53.082;8.816;2024-03-07T05:25:21;102696.09;;;7.36;65.15
64889;BME280;51386;53.082;8.816;2024-03-07T05:27:52;102689.56;;;7.42;65.21
64889;BME280;51386;53.082;8.816;2024-03-07T05:30:21;102701.31;;;7.49;65.45
64889;BME280;51386;53.082;8.816;2024-03-07T05:32:51;102690.22;;;7.58;65.37
64889;BME280;51386;53.082;8.816;2024-03-07T05:35:20;102684.53;;;7.64;65.11
64889;BME280;51386;53.082;8.816;2024-03-07T05:37:49;102693.50;;;7.73;64.95
64889;BME280;51386;53.082;8.816;2024-03-07T05:40:19;102686.69;;;7.83;65.34
64889;BME280;51386;53.082;8.816;2024-03-07T05:42:47;102685.22;;;7.91;64.71
64889;BME280;51386;53.082;8.816;2024-03-07T05:45:16;102683.84;;;7.98;64.73
64889;BME280;51386;53.082;8.816;2024-03-07T05:47:46;102680.25;;;7.99;64.11
64889;BME280;51386;53.082;8.816;2024-03-07T05:50:15;102683.84;;;7.98;63.97
64889;BME280;51386;53.082;8.816;2024-03-07T05:52:44;102687.38;;;7.97;63.81
64889;BME280;51386;53.082;8.816;2024-03-07T05:55:13;102682.97;;;7.98;64.02
64889;BME280;51386;53.082;8.816;2024-03-07T05:57:43;102690.53;;;8.02;64.08
64889;BME280;51386;53.082;8.816;2024-03-07T06:00:13;102684.81;;;8.08;64.24
64889;BME280;51386;53.082;8.816;2024-03-07T06:02:43;102683.44;;;8.15;64.04
64889;BME280;51386;53.082;8.816;2024-03-07T06:05:11;102683.72;;;8.24;64.09
64889;BME280;51386;53.082;8.816;2024-03-07T06:07:43;102683.09;;;8.33;64.25
64889;BME280;51386;53.082;8.816;2024-03-07T06:10:13;102680.53;;;8.44;64.11
64889;BME280;51386;53.082;8.816;2024-03-07T06:12:44;102681.50;;;8.54;63.85
64889;BME280;51386;53.082;8.816;2024-03-07T06:15:16;102692.06;;;8.65;63.70
64889;BME280;51386;53.082;8.816;2024-03-07T06:17:45;102684.34;;;8.74;63.49
64889;BME280;51386;53.082;8.816;2024-03-07T06:20:14;102687.22;;;8.82;63.24
64889;BME280;51386;53.082;8.816;2024-03-07T06:22:51;102687.59;;;8.89;62.79
64889;BME280;51386;53.082;8.816;2024-03-07T06:25:20;102686.50;;;8.92;62.51
64889;BME280;51386;53.082;8.816;2024-03-07T06:28:02;102689.63;;;8.97;62.75
64889;BME280;51386;53.082;8.816;2024-03-07T06:30:43;102699.06;;;8.99;62.45
64889;BME280;51386;53.082;8.816;2024-03-07T06:33:13;102688.94;;;9.06;62.66
64889;BME280;51386;53.082;8.816;2024-03-07T06:35:42;102696.50;;;9.10;62.11
64889;BME280;51386;53.082;8.816;2024-03-07T06:38:11;102691.59;;;9.17;61.94
64889;BME280;51386;53.082;8.816;2024-03-07T06:40:41;102701.03;;;9.19;61.64
64889;BME280;51386;53.082;8.816;2024-03-07T06:43:12;102691.25;;;9.21;61.53
64889;BME280;51386;53.082;8.816;2024-03-07T06:45:42;102688.41;;;9.24;61.63
64889;BME280;51386;53.082;8.816;2024-03-07T06:48:10;102690.06;;;9.25;61.21
64889;BME280;51386;53.082;8.816;2024-03-07T06:50:38;102688.13;;;9.27;61.63
64889;BME280;51386;53.082;8.816;2024-03-07T06:53:07;102686.00;;;9.32;61.45
64889;BME280;51386;53.082;8.816;2024-03-07T06:55:35;102694.59;;;9.34;61.21
64889;BME280;51386;53.082;8.816;2024-03-07T06:58:04;102694.59;;;9.34;61.15
64889;BME280;51386;53.082;8.816;2024-03-07T07:00:33;102687.47;;;9.36;60.93
64889;BME280;51386;53.082;8.816;2024-03-07T07:03:05;102689.34;;;9.34;60.83
64889;BME280;51386;53.082;8.816;2024-03-07T07:05:34;102694.59;;;9.34;61.13
64889;BME280;51386;53.082;8.816;2024-03-07T07:08:03;102683.38;;;9.32;60.82
64889;BME280;51386;53.082;8.816;2024-03-07T07:10:32;102687.91;;;9.30;61.10
64889;BME280;51386;53.082;8.816;2024-03-07T07:13:01;102687.19;;;9.28;61.19
64889;BME280;51386;53.082;8.816;2024-03-07T07:15:29;102689.81;;;9.28;61.25
64889;BME280;51386;53.082;8.816;2024-03-07T07:17:58;102686.47;;;9.26;60.85
64889;BME280;51386;53.082;8.816;2024-03-07T07:20:27;102684.22;;;9.22;61.15
64889;BME280;51386;53.082;8.816;2024-03-07T07:22:55;102693.88;;;9.21;61.27
64889;BME280;51386;53.082;8.816;2024-03-07T07:25:26;102699.13;;;9.21;61.37
64889;BME280;51386;53.082;8.816;2024-03-07T07:27:55;102697.44;;;9.20;61.29
64889;BME280;51386;53.082;8.816;2024-03-07T07:30:24;102694.09;;;9.18;61.69
64889;BME280;51386;53.082;8.816;2024-03-07T07:32:54;102680.59;;;9.23;61.89
64889;BME280;51386;53.082;8.816;2024-03-07T07:35:23;102678.38;;;9.29;61.90
64889;BME280;51386;53.082;8.816;2024-03-07T07:37:52;102679.66;;;9.35;61.62
64889;BME280;51386;53.082;8.816;2024-03-07T07:40:23;102669.88;;;9.37;61.63
64889;BME280;51386;53.082;8.816;2024-03-07T07:42:55;102669.50;;;9.41;61.80
64889;BME280;51386;53.082;8.816;2024-03-07T07:45:24;102669.06;;;9.47;61.63
64889;BME280;51386;53.082;8.816;2024-03-07T07:47:53;102666.91;;;9.52;61.59
64889;BME280;51386;53.082;8.816;2024-03-07T07:50:24;102678.25;;;9.53;61.62
64889;BME280;51386;53.082;8.816;2024-03-07T07:52:55;102668.81;;;9.50;61.66
64889;BME280;51386;53.082;8.816;2024-03-07T07:55:28;102665.34;;;9.50;61.63
64889;BME280;51386;53.082;8.816;2024-03-07T07:57:59;102662.59;;;9.51;61.88
64889;BME280;51386;53.082;8.816;2024-03-07T08:00:28;102662.22;;;9.56;62.10
64889;BME280;51386;53.082;8.816;2024-03-07T08:03:03;102667.03;;;9.62;61.85
64889;BME280;51386;53.082;8.816;2024-03-07T08:05:34;102667.38;;;9.69;61.74
64889;BME280;51386;53.082;8.816;2024-03-07T08:08:06;102656.63;;;9.72;61.51
64889;BME280;51386;53.082;8.816;2024-03-07T08:10:37;102661.59;;;9.75;61.50
64889;BME280;51386;53.082;8.816;2024-03-07T08:13:10;102656.97;;;9.78;61.59
64889;BME280;51386;53.082;8.816;2024-03-07T08:15:38;102662.31;;;9.88;61.69
64889;BME280;51386;53.082;8.816;2024-03-07T08:18:07;102660.16;;;9.93;61.16
64889;BME280;51386;53.082;8.816;2024-03-07T08:20:39;102657.72;;;10.01;61.46
64889;BME280;51386;53.082;8.816;2024-03-07T08:23:09;102657.63;;;10.13;61.21
64889;BME280;51386;53.082;8.816;2024-03-07T08:25:38;102657.34;;;10.28;61.12
64889;BME280;51386;53.082;8.816;2024-03-07T08:28:09;102661.22;;;10.44;61.02
64889;BME280;51386;53.082;8.816;2024-03-07T08:30:37;102661.97;;;10.67;60.19
64889;BME280;51386;53.082;8.816;2024-03-07T08:33:06;102658.28;;;11.00;59.95
64889;BME280;51386;53.082;8.816;2024-03-07T08:35:35;102655.84;;;11.38;59.40
64889;BME280;51386;53.082;8.816;2024-03-07T08:38:04;102655.84;;;11.68;58.67
64889;BME280;51386;53.082;8.816;2024-03-07T08:40:33;102658.72;;;11.95;57.63
64889;BME280;51386;53.082;8.816;2024-03-07T08:43:02;102652.34;;;12.27;57.27
64889;BME280;51386;53.082;8.816;2024-03-07T08:45:31;102641.22;;;12.61;56.33
64889;BME280;51386;53.082;8.816;2024-03-07T08:48:03;102649.81;;;12.82;55.05
64889;BME280;51386;53.082;8.816;2024-03-07T08:50:33;102646.00;;;13.04;54.50
64889;BME280;51386;53.082;8.816;2024-03-07T08:53:06;102643.09;;;13.17;53.43
64889;BME280;51386;53.082;8.816;2024-03-07T08:55:35;102644.19;;;13.24;52.21
64889;BME280;51386;53.082;8.816;2024-03-07T08:58:04;102642.81;;;13.10;52.46
64889;BME280;51386;53.082;8.816;2024-03-07T09:00:35;102648.13;;;12.91;52.38
64889;BME280;51386;53.082;8.816;2024-03-07T09:03:06;102648.69;;;12.85;52.49
64889;BME280;51386;53.082;8.816;2024-03-07T09:05:39;102647.59;;;12.78;52.86
64889;BME280;51386;53.082;8.816;2024-03-07T09:08:08;102643.84;;;12.71;52.66
64889;BME280;51386;53.082;8.816;2024-03-07T09:10:36;102637.91;;;12.59;52.84
64889;BME280;51386;53.082;8.816;2024-03-07T09:13:10;102642.34;;;12.49;53.10
64889;BME280;51386;53.082;8.816;2024-03-07T09:15:39;102641.38;;;12.50;53.00
64889;BME280;51386;53.082;8.816;2024-03-07T09:18:07;102638.59;;;12.52;52.98
64889;BME280;51386;53.082;8.816;2024-03-07T09:20:36;102644.31;;;12.38;52.39
64889;BME280;51386;53.082;8.816;2024-03-07T09:23:06;102635.78;;;12.15;52.79
64889;BME280;51386;53.082;8.816;2024-03-07T09:25:34;102639.22;;;11.87;53.06
64889;BME280;51386;53.082;8.816;2024-03-07T09:28:03;102648.63;;;11.70;53.57
64889;BME280;51386;53.082;8.816;2024-03-07T09:30:32;102649.66;;;11.58;53.79
64889;BME280;51386;53.082;8.816;2024-03-07T09:33:00;102642.97;;;11.44;53.98
64889;BME280;51386;53.082;8.816;2024-03-07T09:35:30;102642.41;;;11.41;54.35
64889;BME280;51386;53.082;8.816;2024-03-07T09:37:58;102645.72;;;11.33;54.29
64889;BME280;51386;53.082;8.816;2024-03-07T09:40:27;102641.34;;;11.23;54.40
64889;BME280;51386;53.082;8.816;2024-03-07T09:43:00;102643.09;;;11.13;54.63
64889;BME280;51386;53.082;8.816;2024-03-07T09:45:30;102650.00;;;11.04;54.83
64889;BME280;51386;53.082;8.816;2024-03-07T09:48:00;102653.66;;;10.92;55.21
64889;BME280;51386;53.082;8.816;2024-03-07T09:50:30;102649.44;;;10.80;55.14
64889;BME280;51386;53.082;8.816;2024-03-07T09:53:00;102650.06;;;10.72;55.71
64889;BME280;51386;53.082;8.816;2024-03-07T09:55:30;102654.38;;;10.73;55.88
64889;BME280;51386;53.082;8.816;2024-03-07T09:58:00;102651.75;;;10.73;55.84
64889;BME280;51386;53.082;8.816;2024-03-07T10:00:31;102655.31;;;10.72;56.06
64889;BME280;51386;53.082;8.816;2024-03-07T10:03:06;102657.25;;;10.70;55.79
64889;BME280;51386;53.082;8.816;2024-03-07T10:05:37;102655.84;;;10.66;55.79
64889;BME280;51386;53.082;8.816;2024-03-07T10:08:07;102660.13;;;10.67;55.98
64889;BME280;51386;53.082;8.816;2024-03-07T10:10:35;102650.59;;;10.66;55.70
64889;BME280;51386;53.082;8.816;2024-03-07T10:13:04;102651.44;;;10.67;55.90
64889;BME280;51386;53.082;8.816;2024-03-07T10:15:33;102655.72;;;10.68;55.78
64889;BME280;51386;53.082;8.816;2024-03-07T10:18:02;102652.97;;;10.69;55.70
64889;BME280;51386;53.082;8.816;2024-03-07T10:20:34;102658.66;;;10.74;55.74
64889;BME280;51386;53.082;8.816;2024-03-07T10:23:04;102654.69;;;10.80;55.62
64889;BME280;51386;53.082;8.816;2024-03-07T10:25:35;102658.66;;;10.74;54.87
64889;BME280;51386;53.082;8.816;2024-03-07T10:28:06;102657.66;;;10.66;54.87
64889;BME280;51386;53.082;8.816;2024-03-07T10:30:43;102660.59;;;10.52;55.05
64889;BME280;51386;53.082;8.816;2024-03-07T10:33:18;102658.47;;;10.46;55.29
64889;BME280;51386;53.082;8.816;2024-03-07T10:35:47;102657.75;;;10.44;55.72
64889;BME280;51386;53.082;8.816;2024-03-07T10:38:18;102656.78;;;10.45;55.74
64889;BME280;51386;53.082;8.816;2024-03-07T10:40:52;102660.97;;;10.47;55.52
64889;BME280;51386;53.082;8.816;2024-03-07T10:43:22;102655.47;;;10.50;55.40
64889;BME280;51386;53.082;8.816;2024-03-07T10:45:51;102650.66;;;10.55;55.24
64889;BME280;51386;53.082;8.816;2024-03-07T10:48:20;102657.44;;;10.58;55.21
64889;BME280;51386;53.082;8.816;2024-03-07T10:51:14;102654.00;;;10.57;55.09
64889;BME280;51386;53.082;8.816;2024-03-07T10:54:19;102652.53;;;10.64;55.17
64889;BME280;51386;53.082;8.816;2024-03-07T10:57:17;102649.97;;;10.74;55.06
64889;BME280;51386;53.082;8.816;2024-03-07T10:59:56;102654.31;;;10.84;54.54
64889;BME280;51386;53.082;8.816;2024-03-07T11:02:38;102646.28;;;10.86;54.04
64889;BME280;51386;53.082;8.816;2024-03-07T11:05:14;102647.09;;;10.86;53.40
64889;BME280;51386;53.082;8.816;2024-03-07T11:07:43;102656.00;;;10.85;53.60
64889;BME280;51386;53.082;8.816;2024-03-07T11:10:13;102647.94;;;10.87;53.73
64889;BME280;51386;53.082;8.816;2024-03-07T11:12:42;102640.19;;;10.85;53.22
64889;BME280;51386;53.082;8.816;2024-03-07T11:15:14;102652.66;;;10.83;53.50
64889;BME280;51386;53.082;8.816;2024-03-07T11:17:48;102642.38;;;10.80;53.48
64889;BME280;51386;53.082;8.816;2024-03-07T11:20:34;102642.06;;;10.74;53.46
64889;BME280;51386;53.082;8.816;2024-03-07T11:23:28;102636.19;;;10.70;53.36
64889;BME280;51386;53.082;8.816;2024-03-07T11:26:05;102635.09;;;10.73;53.55
64889;BME280;51386;53.082;8.816;2024-03-07T11:28:41;102632.00;;;10.68;53.43
64889;BME280;51386;53.082;8.816;2024-03-07T11:31:26;102635.03;;;10.63;53.84
64889;BME280;51386;53.082;8.816;2024-03-07T11:34:15;102633.38;;;10.62;53.87
64889;BME280;51386;53.082;8.816;2024-03-07T11:36:48;102636.44;;;10.67;53.87
64889;BME280;51386;53.082;8.816;2024-03-07T11:39:59;102637.81;;;10.62;53.90
64889;BME280;51386;53.082;8.816;2024-03-07T11:42:36;102638.66;;;10.62;54.10
64889;BME280;51386;53.082;8.816;2024-03-07T11:45:05;102638.91;;;10.59;54.30
64889;BME280;51386;53.082;8.816;2024-03-07T11:47:38;102630.75;;;10.62;54.42
64889;BME280;51386;53.082;8.816;2024-03-07T11:50:08;102628.94;;;10.63;54.56
64889;BME280;51386;53.082;8.816;2024-03-07T11:52:39;102633.09;;;10.65;54.31
64889;BME280;51386;53.082;8.816;2024-03-07T11:55:12;102629.31;;;10.58;54.01
64889;BME280;51386;53.082;8.816;2024-03-07T11:57:41;102621.94;;;10.52;54.05
64889;BME280;51386;53.082;8.816;2024-03-07T12:00:15;102621.34;;;10.49;54.16
64889;BME280;51386;53.082;8.816;2024-03-07T12:02:44;102624.81;;;10.49;54.47
64889;BME280;51386;53.082;8.816;2024-03-07T12:05:14;102622.66;;;10.54;54.39
64889;BME280;51386;53.082;8.816;2024-03-07T12:07:47;102620.56;;;10.58;54.59
64889;BME280;51386;53.082;8.816;2024-03-07T12:10:18;102607.38;;;10.69;54.35
64889;BME280;51386;53.082;8.816;2024-03-07T12:12:53;102606.19;;;10.82;54.10
64889;BME280;51386;53.082;8.816;2024-03-07T12:15:24;102604.72;;;10.89;53.83
64889;BME280;51386;53.082;8.816;2024-03-07T12:17:53;102601.13;;;10.91;53.85
64889;BME280;51386;53.082;8.816;2024-03-07T12:20:22;102598.94;;;10.96;53.94
64889;BME280;51386;53.082;8.816;2024-03-07T12:23:00;102593.28;;;11.00;53.54
64889;BME280;51386;53.082;8.816;2024-03-07T12:25:32;102603.66;;;11.02;53.47
64889;BME280;51386;53.082;8.816;2024-03-07T12:28:10;102593.97;;;11.02;53.30
64889;BME280;51386;53.082;8.816;2024-03-07T12:30:55;102595.06;;;11.00;53.20
64889;BME280;51386;53.082;8.816;2024-03-07T12:33:24;102594.81;;;11.03;53.29
64889;BME280;51386;53.082;8.816;2024-03-07T12:35:56;102591.44;;;11.01;53.49
64889;BME280;51386;53.082;8.816;2024-03-07T12:38:36;102589.53;;;11.03;53.31
64889;BME280;51386;53.082;8.816;2024-03-07T12:41:08;102580.47;;;11.26;53.04
64889;BME280;51386;53.082;8.816;2024-03-07T12:43:44;102587.38;;;11.27;53.31
64889;BME280;51386;53.082;8.816;2024-03-07T12:46:17;102584.06;;;11.25;53.13
64889;BME280;51386;53.082;8.816;2024-03-07T12:48:45;102581.72;;;11.22;52.96
64889;BME280;51386;53.082;8.816;2024-03-07T12:51:14;102578.34;;;11.20;53.14
64889;BME280;51386;53.082;8.816;2024-03-07T12:53:47;102580.97;;;11.20;53.17
64889;BME280;51386;53.082;8.816;2024-03-07T12:56:16;102578.50;;;11.18;53.21
64889;BME280;51386;53.082;8.816;2024-03-07T12:58:47;102572.13;;;11.21;53.28
64889;BME280;51386;53.082;8.816;2024-03-07T13:01:19;102577.41;;;11.21;53.36
64889;BME280;51386;53.082;8.816;2024-03-07T13:03:48;102569.22;;;11.24;53.37
64889;BME280;51386;53.082;8.816;2024-03-07T13:06:17;102563.25;;;11.22;53.08
64889;BME280;51386;53.082;8.816;2024-03-07T13:08:53;102566.00;;;11.20;53.32
64889;BME280;51386;53.082;8.816;2024-03-07T13:11:23;102556.31;;;11.21;53.18
64889;BME280;51386;53.082;8.816;2024-03-07T13:13:51;102555.34;;;11.22;53.35
64889;BME280;51386;53.082;8.816;2024-03-07T13:16:20;102558.09;;;11.20;53.08